createdAt,value
2019-05-26T00:01:47.507Z,10.03
2019-05-26T00:04:20.023Z,12.30
2019-05-26T00:06:52.732Z,12.00
2019-05-26T00:09:27.976Z,11.03
2019-05-26T00:12:02.495Z,11.43
2019-05-26T00:14:35.005Z,11.57
2019-05-26T00:17:07.561Z,13.87
2019-05-26T00:19:41.696Z,11.83
2019-05-26T00:22:15.205Z,10.13
2019-05-26T00:24:47.779Z,10.00
2019-05-26T00:27:21.384Z,11.13
2019-05-26T00:29:54.602Z,9.33
2019-05-26T00:32:27.099Z,11.53
2019-05-26T00:35:01.125Z,12.88
2019-05-26T00:37:48.260Z,12.70
2019-05-26T00:40:27.205Z,9.57
2019-05-26T00:43:02.642Z,10.30
2019-05-26T00:45:38.030Z,12.93
2019-05-26T00:48:10.763Z,12.73
2019-05-26T00:50:43.693Z,13.87
2019-05-26T00:53:16.367Z,11.30
2019-05-26T00:55:49.368Z,10.27
2019-05-26T00:58:22.148Z,10.33
2019-05-26T01:00:55.326Z,11.53
2019-05-26T01:03:27.882Z,10.93
2019-05-26T01:06:00.507Z,10.47
2019-05-26T01:08:33.282Z,11.23
2019-05-26T01:11:05.934Z,15.90
2019-05-26T01:13:39.389Z,16.33
2019-05-26T01:16:12.043Z,13.90
2019-05-26T01:18:47.213Z,15.03
2019-05-26T01:21:24.720Z,17.08
2019-05-26T01:23:59.190Z,15.40
2019-05-26T01:26:31.768Z,12.60
2019-05-26T01:29:05.951Z,11.38
2019-05-26T01:31:38.574Z,13.50
2019-05-26T01:34:11.139Z,14.17
2019-05-26T01:36:48.755Z,15.17
2019-05-26T01:39:24.461Z,12.10
2019-05-26T01:42:02.039Z,10.07
2019-05-26T01:44:35.745Z,12.10
2019-05-26T01:47:08.350Z,10.77
2019-05-26T01:49:41.102Z,13.63
2019-05-26T01:52:13.726Z,15.10
2019-05-26T01:54:48.225Z,15.63
2019-05-26T01:57:21.823Z,16.00
2019-05-26T01:59:54.487Z,16.97
2019-05-26T02:02:27.140Z,26.97
2019-05-26T02:04:59.798Z,23.73
2019-05-26T02:07:33.856Z,15.60
2019-05-26T02:10:07.762Z,19.50
2019-05-26T02:12:41.674Z,20.37
2019-05-26T02:15:20.583Z,20.73
2019-05-26T02:17:53.218Z,25.67
2019-05-26T02:20:26.474Z,20.03
2019-05-26T02:22:59.563Z,17.37
2019-05-26T02:25:32.738Z,19.93
2019-05-26T02:28:05.425Z,23.33
2019-05-26T02:30:38.230Z,19.00
2019-05-26T02:33:11.440Z,10.97
2019-05-26T02:35:44.617Z,24.50
2019-05-26T02:38:17.321Z,24.77
2019-05-26T02:40:49.996Z,29.13
2019-05-26T02:43:22.693Z,27.93
2019-05-26T02:45:55.238Z,24.73
2019-05-26T02:48:28.372Z,23.42
2019-05-26T02:51:02.422Z,30.07
2019-05-26T02:53:34.999Z,24.93
2019-05-26T02:56:07.821Z,26.13
2019-05-26T02:58:41.061Z,26.50
2019-05-26T03:01:13.772Z,23.70
2019-05-26T03:03:47.255Z,23.87
2019-05-26T03:06:22.124Z,23.00
2019-05-26T03:08:57.824Z,23.50
2019-05-26T03:11:33.730Z,30.60
2019-05-26T03:14:10.894Z,28.40
2019-05-26T03:16:46.664Z,26.67
2019-05-26T03:19:22.971Z,26.20
2019-05-26T03:21:59.584Z,28.27
2019-05-26T03:24:34.260Z,30.77
2019-05-26T03:27:07.023Z,28.97
2019-05-26T03:29:39.547Z,32.60
2019-05-26T03:32:12.177Z,29.00
2019-05-26T03:34:44.801Z,31.47
2019-05-26T03:37:17.497Z,34.47
2019-05-26T03:39:50.046Z,35.20
2019-05-26T03:42:22.714Z,34.73
2019-05-26T03:44:55.994Z,34.23
2019-05-26T03:47:30.020Z,38.13
2019-05-26T03:50:03.909Z,36.93
2019-05-26T03:52:36.708Z,38.67
2019-05-26T03:55:09.621Z,36.83
2019-05-26T03:57:42.261Z,37.23
2019-05-26T04:00:16.327Z,38.23
2019-05-26T04:02:49.077Z,39.97
2019-05-26T04:05:21.631Z,44.97
2019-05-26T04:07:54.390Z,45.80
2019-05-26T04:10:27.695Z,44.73
2019-05-26T04:13:00.926Z,44.27
2019-05-26T04:15:33.546Z,42.60
2019-05-26T04:18:08.889Z,40.47
2019-05-26T04:20:45.589Z,39.15
2019-05-26T04:23:19.586Z,35.20
2019-05-26T04:25:53.556Z,36.85
2019-05-26T04:28:26.460Z,37.10
2019-05-26T04:31:00.665Z,34.03
2019-05-26T04:33:33.296Z,34.90
2019-05-26T04:36:06.341Z,37.17
2019-05-26T04:38:39.032Z,41.03
2019-05-26T04:41:12.904Z,39.80
2019-05-26T04:43:45.665Z,40.00
2019-05-26T04:46:20.940Z,36.37
2019-05-26T04:49:02.691Z,38.00
2019-05-26T04:51:35.375Z,48.23
2019-05-26T04:54:07.934Z,41.03
2019-05-26T04:56:43.800Z,41.13
2019-05-26T04:59:18.907Z,35.80
2019-05-26T05:01:53.711Z,38.30
2019-05-26T05:04:28.206Z,40.00
2019-05-26T05:07:00.795Z,37.57
2019-05-26T05:09:33.506Z,39.30
2019-05-26T05:12:07.321Z,37.47
2019-05-26T05:14:40.633Z,36.57
2019-05-26T05:17:14.842Z,42.13
2019-05-26T05:19:48.338Z,41.20
2019-05-26T05:22:21.884Z,38.83
2019-05-26T05:24:55.622Z,41.17
2019-05-26T05:27:30.296Z,41.23
2019-05-26T05:30:07.354Z,43.73
2019-05-26T05:32:40.433Z,38.70
2019-05-26T05:35:14.806Z,47.37
2019-05-26T05:37:48.518Z,48.25
2019-05-26T05:40:21.198Z,44.63
2019-05-26T05:42:53.861Z,42.67
2019-05-26T05:45:27.486Z,45.43
2019-05-26T05:48:00.168Z,41.97
2019-05-26T05:54:00.787Z,45.13
2019-05-26T05:56:33.509Z,45.20
2019-05-26T05:59:06.128Z,40.40
2019-05-26T06:01:38.904Z,47.37
2019-05-26T06:04:13.390Z,39.90
2019-05-26T06:06:46.890Z,40.87
2019-05-26T06:09:23.364Z,38.63
2019-05-26T06:11:56.866Z,39.77
2019-05-26T06:14:29.900Z,38.70
2019-05-26T06:17:04.023Z,37.27
2019-05-26T06:19:36.672Z,36.95
2019-05-26T06:22:10.575Z,33.40
2019-05-26T06:24:44.423Z,31.73
2019-05-26T06:27:18.775Z,31.40
2019-05-26T06:29:59.057Z,34.67
2019-05-26T06:32:32.021Z,30.77
2019-05-26T06:35:05.626Z,30.97
2019-05-26T06:37:38.381Z,46.97
2019-05-26T06:40:14.069Z,30.73
2019-05-26T06:42:46.745Z,29.37
2019-05-26T06:45:20.829Z,30.53
2019-05-26T06:47:54.411Z,30.83
2019-05-26T06:50:27.788Z,30.63
2019-05-26T06:53:01.391Z,27.17
2019-05-26T06:55:33.899Z,27.47
2019-05-26T06:58:12.642Z,25.57
2019-05-26T07:00:46.984Z,27.93
2019-05-26T07:03:21.697Z,27.63
2019-05-26T07:05:57.935Z,25.43
2019-05-26T07:08:30.648Z,25.07
2019-05-26T07:11:05.010Z,26.75
2019-05-26T07:13:42.353Z,24.13
2019-05-26T07:16:15.588Z,24.13
2019-05-26T07:18:48.514Z,23.97
2019-05-26T07:21:23.782Z,23.73
2019-05-26T07:23:56.434Z,23.57
2019-05-26T07:26:40.282Z,24.00
2019-05-26T07:29:13.010Z,22.30
2019-05-26T07:31:47.275Z,22.80
2019-05-26T07:34:19.898Z,22.73
2019-05-26T07:36:52.586Z,21.00
2019-05-26T07:39:25.483Z,21.83
2019-05-26T07:42:09.815Z,22.87
2019-05-26T07:45:04.735Z,19.90
2019-05-26T07:47:40.332Z,22.02
2019-05-26T07:50:17.575Z,19.50
2019-05-26T07:52:51.565Z,18.57
2019-05-26T07:55:28.694Z,18.77
2019-05-26T07:58:02.443Z,18.50
2019-05-26T08:00:39.326Z,16.17
2019-05-26T08:03:19.347Z,16.93
2019-05-26T08:05:52.387Z,15.53
2019-05-26T08:08:29.988Z,15.07
2019-05-26T08:11:02.881Z,16.23
2019-05-26T08:13:36.053Z,15.03
2019-05-26T08:16:09.545Z,15.60
2019-05-26T08:19:07.842Z,14.80
2019-05-26T08:21:42.862Z,15.93
2019-05-26T08:24:16.022Z,15.13
2019-05-26T08:26:48.724Z,14.03
2019-05-26T08:29:25.939Z,14.10
2019-05-26T08:32:00.734Z,14.83
2019-05-26T08:34:35.773Z,13.33
2019-05-26T08:37:13.291Z,12.40
2019-05-26T08:39:51.600Z,11.43
2019-05-26T08:42:43.766Z,12.83
2019-05-26T08:45:21.415Z,12.60
2019-05-26T08:47:55.746Z,13.38
2019-05-26T08:50:34.258Z,11.73
2019-05-26T08:53:13.088Z,11.97
2019-05-26T08:55:46.546Z,10.87
2019-05-26T08:58:22.487Z,11.90
2019-05-26T09:00:55.659Z,12.13
2019-05-26T09:03:32.125Z,10.93
2019-05-26T09:06:05.941Z,10.07
2019-05-26T09:08:40.035Z,10.07
2019-05-26T09:11:12.807Z,9.93
2019-05-26T09:13:48.462Z,8.43
2019-05-26T09:16:21.191Z,12.83
2019-05-26T09:19:01.359Z,10.20
2019-05-26T09:21:34.533Z,9.23
2019-05-26T09:24:08.761Z,9.17
2019-05-26T09:26:43.988Z,9.80
2019-05-26T09:29:17.531Z,8.37
2019-05-26T09:31:50.103Z,7.70
2019-05-26T09:34:22.860Z,9.15
2019-05-26T09:36:57.208Z,8.03
2019-05-26T09:39:31.584Z,7.40
2019-05-26T09:42:04.411Z,7.90
2019-05-26T09:44:41.787Z,6.97
2019-05-26T09:47:14.540Z,6.87
2019-05-26T09:49:48.249Z,6.50
2019-05-26T09:52:21.148Z,6.00
2019-05-26T09:55:01.759Z,5.77
2019-05-26T09:57:36.210Z,4.87
2019-05-26T10:00:25.631Z,4.70
2019-05-26T10:02:59.290Z,5.00
2019-05-26T10:05:32.955Z,5.00
2019-05-26T10:08:05.873Z,4.93
2019-05-26T10:10:38.632Z,4.67
2019-05-26T10:13:11.891Z,4.00
2019-05-26T10:15:46.280Z,4.10
2019-05-26T10:18:20.602Z,5.27
2019-05-26T10:20:59.641Z,4.00
2019-05-26T10:23:38.825Z,6.70
2019-05-26T10:26:19.816Z,8.43
2019-05-26T10:29:24.056Z,4.23
2019-05-26T10:32:08.458Z,4.83
2019-05-26T10:34:42.709Z,4.33
2019-05-26T10:37:18.157Z,3.20
2019-05-26T10:39:51.647Z,4.10
2019-05-26T10:42:25.320Z,7.00
2019-05-26T10:45:04.229Z,3.27
2019-05-26T10:47:42.949Z,2.80
2019-05-26T10:50:18.326Z,3.00
2019-05-26T10:52:52.200Z,3.85
2019-05-26T10:55:26.175Z,4.28
2019-05-26T10:57:58.956Z,4.93
2019-05-26T11:00:33.297Z,3.40
2019-05-26T11:03:07.095Z,2.90
2019-05-26T11:05:42.508Z,3.87
2019-05-26T11:08:24.253Z,7.20
2019-05-26T11:10:59.022Z,3.80
2019-05-26T11:13:40.846Z,3.57
2019-05-26T11:16:13.942Z,4.77
2019-05-26T11:18:47.401Z,3.23
2019-05-26T11:21:20.258Z,3.20
2019-05-26T11:23:53.809Z,3.63
2019-05-26T11:26:29.411Z,3.10
2019-05-26T11:29:04.301Z,3.40
2019-05-26T11:31:39.810Z,4.50
2019-05-26T11:34:15.480Z,3.03
2019-05-26T11:36:52.971Z,3.93
2019-05-26T11:39:41.456Z,4.43
2019-05-26T11:42:18.168Z,2.73
2019-05-26T11:44:54.099Z,3.63
2019-05-26T11:47:29.340Z,2.93
2019-05-26T11:50:06.493Z,2.40
2019-05-26T11:52:42.299Z,2.97
2019-05-26T11:55:20.379Z,3.40
2019-05-26T11:57:54.401Z,3.13
2019-05-26T12:00:27.742Z,4.50
2019-05-26T12:03:05.854Z,2.70
2019-05-26T12:05:43.142Z,2.93
2019-05-26T12:08:15.968Z,4.00
2019-05-26T12:10:49.947Z,5.83
2019-05-26T12:13:26.334Z,4.50
2019-05-26T12:16:01.354Z,2.83
2019-05-26T12:18:34.956Z,3.43
2019-05-26T12:21:08.459Z,2.97
2019-05-26T12:23:54.725Z,2.77
2019-05-26T12:26:28.516Z,3.33
2019-05-26T12:29:01.508Z,3.97
2019-05-26T12:31:34.595Z,3.10
2019-05-26T12:34:07.638Z,4.13
2019-05-26T12:36:40.942Z,4.90
2019-05-26T12:39:13.598Z,2.97
2019-05-26T12:41:46.476Z,3.10
2019-05-26T12:44:20.233Z,4.03
2019-05-26T12:46:53.443Z,4.93
2019-05-26T12:49:28.025Z,4.93
2019-05-26T12:52:02.120Z,4.70
2019-05-26T12:54:37.078Z,3.70
2019-05-26T12:57:10.201Z,4.47
2019-05-26T12:59:45.087Z,5.03
2019-05-26T13:02:19.204Z,6.03
2019-05-26T13:04:54.506Z,3.60
2019-05-26T13:07:27.841Z,4.40
2019-05-26T13:10:26.278Z,4.93
2019-05-26T13:13:01.241Z,4.53
2019-05-26T13:15:37.346Z,13.63
2019-05-26T13:18:38.194Z,4.50
2019-05-26T13:21:20.462Z,4.90
2019-05-26T13:23:56.080Z,8.93
2019-05-26T13:26:31.393Z,6.20
2019-05-26T13:29:06.825Z,3.80
2019-05-26T13:31:39.693Z,4.47
2019-05-26T13:34:15.568Z,4.83
2019-05-26T13:36:52.127Z,4.37
2019-05-26T13:39:37.796Z,3.63
2019-05-26T13:42:23.229Z,4.53
2019-05-26T13:45:21.678Z,6.70
2019-05-26T13:47:57.312Z,3.50
2019-05-26T13:50:30.939Z,6.10
2019-05-26T13:53:06.779Z,4.10
2019-05-26T13:55:53.230Z,6.33
2019-05-26T13:58:27.257Z,5.50
2019-05-26T14:01:00.637Z,4.20
2019-05-26T14:03:35.525Z,4.67
2019-05-26T14:06:11.964Z,4.70
2019-05-26T14:08:48.277Z,4.87
2019-05-26T14:11:23.849Z,5.93
2019-05-26T14:14:04.122Z,4.77
2019-05-26T14:17:03.238Z,4.40
2019-05-26T14:19:40.889Z,6.23
2019-05-26T14:22:25.362Z,3.80
2019-05-26T14:24:58.375Z,6.83
2019-05-26T14:27:38.327Z,4.03
2019-05-26T14:30:14.899Z,6.30
2019-05-26T14:32:49.961Z,5.07
2019-05-26T14:35:23.731Z,5.63
2019-05-26T14:37:56.779Z,5.07
2019-05-26T14:40:31.390Z,4.20
2019-05-26T14:43:07.617Z,4.87
2019-05-26T14:45:52.829Z,3.97
2019-05-26T14:48:28.259Z,4.80
2019-05-26T14:51:02.674Z,4.83
2019-05-26T14:53:39.696Z,5.67
2019-05-26T14:56:15.959Z,4.30
2019-05-26T14:58:52.009Z,4.15
2019-05-26T15:01:25.621Z,3.43
2019-05-26T15:03:59.113Z,5.27
2019-05-26T15:06:34.804Z,3.57
2019-05-26T15:09:24.834Z,5.57
2019-05-26T15:12:02.923Z,5.87
2019-05-26T15:14:35.522Z,3.80
2019-05-26T15:17:08.847Z,5.00
2019-05-26T15:19:42.183Z,3.63
2019-05-26T15:22:16.648Z,3.70
2019-05-26T15:24:49.417Z,5.05
2019-05-26T15:27:24.491Z,4.43
2019-05-26T15:29:58.628Z,3.90
2019-05-26T15:32:32.666Z,4.30
2019-05-26T15:35:08.161Z,4.35
2019-05-26T15:37:41.091Z,7.37
2019-05-26T15:40:34.415Z,4.47
2019-05-26T15:43:08.807Z,5.23
2019-05-26T15:45:45.948Z,4.53
2019-05-26T15:48:19.536Z,4.60
2019-05-26T15:50:52.600Z,4.90
2019-05-26T15:53:30.335Z,5.50
2019-05-26T15:56:04.281Z,4.80
2019-05-26T15:58:50.632Z,3.77
2019-05-26T16:01:25.190Z,4.80
2019-05-26T16:04:01.362Z,5.67
2019-05-26T16:06:34.078Z,3.93
2019-05-26T16:09:08.683Z,3.73
2019-05-26T16:11:43.607Z,3.93
2019-05-26T16:14:21.392Z,4.22
2019-05-26T16:16:56.441Z,4.03
2019-05-26T16:19:31.943Z,4.53
2019-05-26T16:22:09.763Z,6.33
2019-05-26T16:24:48.907Z,4.80
2019-05-26T16:27:27.246Z,4.73
2019-05-26T16:30:07.474Z,4.20
2019-05-26T16:32:50.605Z,3.73
2019-05-26T16:35:29.510Z,5.28
2019-05-26T16:38:07.827Z,6.20
2019-05-26T16:40:48.755Z,4.17
2019-05-26T16:43:22.368Z,4.33
2019-05-26T16:45:58.152Z,5.53
2019-05-26T16:48:32.063Z,5.43
2019-05-26T16:51:07.660Z,4.70
2019-05-26T16:53:42.998Z,4.97
2019-05-26T16:56:20.786Z,3.27
2019-05-26T16:58:54.625Z,3.17
2019-05-26T17:01:29.390Z,3.50
2019-05-26T17:04:04.845Z,3.60
2019-05-26T17:06:39.670Z,3.27
2019-05-26T17:09:31.627Z,3.93
2019-05-26T17:12:07.782Z,3.47
2019-05-26T17:14:42.714Z,3.47
2019-05-26T17:17:18.259Z,4.30
2019-05-26T17:20:00.596Z,4.13
2019-05-26T17:22:35.734Z,6.05
2019-05-26T17:25:10.676Z,3.70
2019-05-26T17:27:44.510Z,4.28
2019-05-26T17:30:22.076Z,6.33
2019-05-26T17:32:57.076Z,5.30
2019-05-26T17:35:37.583Z,3.40
2019-05-26T17:38:11.112Z,4.10
2019-05-26T17:40:46.828Z,5.63
2019-05-26T17:43:21.434Z,8.70
2019-05-26T17:45:56.564Z,3.87
2019-05-26T17:48:34.974Z,3.93
2019-05-26T17:51:17.518Z,6.70
2019-05-26T17:53:54.086Z,3.83
2019-05-26T17:56:40.119Z,3.73
2019-05-26T17:59:16.513Z,4.10
2019-05-26T18:01:57.525Z,5.63
2019-05-26T18:04:42.350Z,4.00
2019-05-26T18:07:17.550Z,5.70
2019-05-26T18:09:55.366Z,3.67
2019-05-26T18:12:38.755Z,4.03
2019-05-26T18:15:21.261Z,3.97
2019-05-26T18:17:59.041Z,4.78
2019-05-26T18:20:34.416Z,5.15
2019-05-26T18:23:11.527Z,4.40
2019-05-26T18:25:46.269Z,4.30
2019-05-26T18:28:20.650Z,5.63
2019-05-26T18:30:56.151Z,4.17
2019-05-26T18:33:31.813Z,5.33
2019-05-26T18:36:04.457Z,3.63
2019-05-26T18:38:41.393Z,5.53
2019-05-26T18:41:22.565Z,6.30
2019-05-26T18:43:57.265Z,5.23
2019-05-26T18:46:30.003Z,4.57
2019-05-26T18:49:12.357Z,4.00
2019-05-26T18:51:48.770Z,3.67
2019-05-26T18:54:24.716Z,5.97
2019-05-26T18:56:59.958Z,5.00
2019-05-26T18:59:36.032Z,5.85
2019-05-26T19:02:11.131Z,5.50
2019-05-26T19:04:45.431Z,5.07
2019-05-26T19:07:18.733Z,5.67
2019-05-26T19:10:04.710Z,4.80
2019-05-26T19:12:47.150Z,5.77
2019-05-26T19:15:28.350Z,4.73
2019-05-26T19:18:16.758Z,5.00
2019-05-26T19:20:56.781Z,4.20
2019-05-26T19:23:34.491Z,5.03
2019-05-26T19:26:08.204Z,4.60
2019-05-26T19:28:41.648Z,5.27
2019-05-26T19:31:14.480Z,5.80
2019-05-26T19:33:47.042Z,5.17
2019-05-26T19:36:19.881Z,5.47
2019-05-26T19:38:54.242Z,5.40
2019-05-26T19:41:33.003Z,5.20
2019-05-26T19:44:06.338Z,5.10
2019-05-26T19:46:41.077Z,4.80
2019-05-26T19:49:17.921Z,5.37
2019-05-26T19:51:56.030Z,4.90
2019-05-26T19:54:37.105Z,5.97
2019-05-26T19:57:16.270Z,5.90
2019-05-26T20:00:10.554Z,7.97
2019-05-26T20:02:47.951Z,6.43
2019-05-26T20:05:22.170Z,4.70
2019-05-26T20:07:57.148Z,4.77
2019-05-26T20:10:34.219Z,4.80
2019-05-26T20:13:11.222Z,5.83
2019-05-26T20:15:46.007Z,7.27
2019-05-26T20:18:18.831Z,6.93
2019-05-26T20:20:52.605Z,5.70
2019-05-26T20:23:26.917Z,6.33
2019-05-26T20:25:59.619Z,6.20
2019-05-26T20:28:34.823Z,6.33
2019-05-26T20:31:10.207Z,5.57
2019-05-26T20:33:43.742Z,5.87
2019-05-26T20:36:43.932Z,5.95
2019-05-26T20:39:19.219Z,5.00
2019-05-26T20:41:55.334Z,5.47
2019-05-26T20:44:30.767Z,5.13
2019-05-26T20:47:05.744Z,6.85
2019-05-26T20:49:45.733Z,5.83
2019-05-26T20:52:20.152Z,5.10
2019-05-26T20:54:54.215Z,5.97
2019-05-26T20:57:26.877Z,5.83
2019-05-26T21:00:01.571Z,6.10
2019-05-26T21:02:37.866Z,5.97
2019-05-26T21:05:11.392Z,4.97
2019-05-26T21:07:45.497Z,6.77
2019-05-26T21:10:18.509Z,5.30
2019-05-26T21:12:52.623Z,5.87
2019-05-26T21:15:25.777Z,7.67
2019-05-26T21:18:02.072Z,8.23
2019-05-26T21:20:35.243Z,8.37
2019-05-26T21:23:08.806Z,10.03
2019-05-26T21:25:43.319Z,8.13
2019-05-26T21:28:18.723Z,8.23
2019-05-26T21:30:51.396Z,9.60
2019-05-26T21:33:24.009Z,8.47
2019-05-26T21:35:57.190Z,7.77
2019-05-26T21:38:30.650Z,8.73
2019-05-26T21:41:04.345Z,13.30
2019-05-26T21:43:37.570Z,9.93
2019-05-26T21:46:12.039Z,8.73
2019-05-26T21:48:45.533Z,9.57
2019-05-26T21:51:19.222Z,8.23
2019-05-26T21:53:52.264Z,9.97
2019-05-26T21:56:27.226Z,9.87
2019-05-26T21:59:00.894Z,9.57
2019-05-26T22:01:33.717Z,8.10
2019-05-26T22:04:08.578Z,8.07
2019-05-26T22:06:42.635Z,10.57
2019-05-26T22:09:17.180Z,9.33
2019-05-26T22:11:50.447Z,7.80
2019-05-26T22:14:27.210Z,8.90
2019-05-26T22:17:00.225Z,9.03
2019-05-26T22:19:32.789Z,9.07
2019-05-26T22:22:05.685Z,9.00
2019-05-26T22:24:38.374Z,7.03
2019-05-26T22:27:11.050Z,6.83
2019-05-26T22:29:44.347Z,7.43
2019-05-26T22:32:16.965Z,8.07
2019-05-26T22:34:50.402Z,8.57
2019-05-26T22:37:22.934Z,7.93
2019-05-26T22:39:55.463Z,8.57
2019-05-26T22:42:31.311Z,7.93
2019-05-26T22:45:08.944Z,7.70
2019-05-26T22:47:43.018Z,9.03
2019-05-26T22:50:18.374Z,7.60
2019-05-26T22:52:51.740Z,7.57
2019-05-26T22:55:24.405Z,8.37
2019-05-26T22:57:57.057Z,6.63
2019-05-26T23:00:29.959Z,7.37
2019-05-26T23:03:03.343Z,7.03
2019-05-26T23:05:37.698Z,8.60
2019-05-26T23:08:10.270Z,8.48
2019-05-26T23:10:43.438Z,8.47
2019-05-26T23:13:16.013Z,7.13
2019-05-26T23:15:49.654Z,5.97
2019-05-26T23:18:22.229Z,7.40
2019-05-26T23:20:55.865Z,8.73
2019-05-26T23:23:28.476Z,8.53
2019-05-26T23:26:01.224Z,7.63
2019-05-26T23:28:34.818Z,7.53
2019-05-26T23:31:11.367Z,7.43
2019-05-26T23:33:46.054Z,6.40
2019-05-26T23:36:19.707Z,7.07
2019-05-26T23:38:54.298Z,7.27
2019-05-26T23:41:26.999Z,8.43
2019-05-26T23:43:59.700Z,7.27
2019-05-26T23:46:33.141Z,7.20
2019-05-26T23:49:05.744Z,8.13
2019-05-26T23:51:38.384Z,9.43
2019-05-26T23:54:11.054Z,8.07
2019-05-26T23:56:43.746Z,8.67
2019-05-26T23:59:16.326Z,9.20
